createdAt,value
2024-05-09T00:00:48.573Z,72.10
2024-05-09T00:03:21.076Z,72.27
2024-05-09T00:05:50.964Z,72.67
2024-05-09T00:08:20.887Z,72.64
2024-05-09T00:10:50.889Z,72.78
2024-05-09T00:13:20.774Z,73.20
2024-05-09T00:15:50.492Z,73.57
2024-05-09T00:18:22.976Z,74.05
2024-05-09T00:20:52.918Z,74.31
2024-05-09T00:23:22.744Z,75.22
2024-05-09T00:25:52.559Z,76.76
2024-05-09T00:28:22.315Z,77.86
2024-05-09T00:30:52.040Z,77.72
2024-05-09T00:33:24.712Z,77.33
2024-05-09T00:35:54.544Z,77.55
2024-05-09T00:38:24.305Z,77.32
2024-05-09T00:40:54.046Z,76.87
2024-05-09T00:43:23.767Z,76.29
2024-05-09T00:45:55.008Z,75.98
2024-05-09T00:48:29.677Z,75.89
2024-05-09T00:51:00.542Z,76.61
2024-05-09T00:53:31.258Z,77.22
2024-05-09T00:56:01.706Z,77.52
2024-05-09T00:58:32.410Z,77.73
2024-05-09T01:01:03.799Z,77.73
2024-05-09T01:03:36.469Z,78.19
2024-05-09T01:06:06.470Z,78.82
2024-05-09T01:08:36.497Z,79.23
2024-05-09T01:11:06.470Z,79.73
2024-05-09T01:13:36.319Z,81.31
2024-05-09T01:16:06.179Z,82.62
2024-05-09T01:18:38.684Z,83.18
2024-05-09T01:21:10.219Z,83.92
2024-05-09T01:23:42.758Z,83.06
2024-05-09T01:26:12.620Z,83.75
2024-05-09T01:28:42.485Z,82.03
2024-05-09T01:31:15.830Z,81.33
2024-05-09T01:33:46.262Z,81.41
2024-05-09T01:36:16.179Z,81.09
2024-05-09T01:38:48.522Z,81.21
2024-05-09T01:41:18.304Z,81.16
2024-05-09T01:43:48.108Z,81.42
2024-05-09T01:46:19.462Z,81.85
2024-05-09T01:48:49.666Z,81.96
2024-05-09T01:51:19.706Z,81.31
2024-05-09T01:53:52.125Z,81.29
2024-05-09T01:56:21.904Z,81.40
2024-05-09T01:58:51.677Z,81.49
2024-05-09T02:01:21.515Z,81.64
2024-05-09T02:03:51.453Z,82.21
2024-05-09T02:06:21.352Z,82.89
2024-05-09T02:08:53.746Z,82.77
2024-05-09T02:11:23.514Z,83.18
2024-05-09T02:13:53.403Z,83.29
2024-05-09T02:16:23.125Z,83.09
2024-05-09T02:18:52.943Z,82.69
2024-05-09T02:21:22.750Z,82.41
2024-05-09T02:23:55.081Z,82.35
2024-05-09T02:26:24.973Z,82.70
2024-05-09T02:28:54.876Z,82.71
2024-05-09T02:31:24.621Z,83.06
2024-05-09T02:33:54.854Z,83.33
2024-05-09T02:36:25.246Z,83.65
2024-05-09T02:38:54.961Z,83.77
2024-05-09T02:41:24.705Z,83.93
2024-05-09T02:43:51.878Z,84.26
2024-05-09T02:46:21.617Z,84.39
2024-05-09T02:48:48.819Z,84.19
2024-05-09T02:51:18.675Z,83.89
2024-05-09T02:53:45.855Z,84.91
2024-05-09T02:56:18.236Z,84.57
2024-05-09T02:58:45.360Z,84.27
2024-05-09T03:01:15.203Z,83.89
2024-05-09T03:03:43.558Z,83.89
2024-05-09T03:06:13.405Z,84.35
2024-05-09T03:08:44.769Z,84.06
2024-05-09T03:11:26.179Z,83.96
2024-05-09T03:13:54.443Z,83.63
2024-05-09T03:16:24.189Z,83.63
2024-05-09T03:18:51.361Z,83.70
2024-05-09T03:21:21.139Z,83.81
2024-05-09T03:23:48.548Z,84.91
2024-05-09T03:26:20.060Z,87.42
2024-05-09T03:28:49.860Z,87.56
2024-05-09T03:31:21.507Z,87.31
2024-05-09T03:33:48.796Z,87.00
2024-05-09T03:36:18.607Z,86.86
2024-05-09T03:38:50.375Z,87.21
2024-05-09T03:41:22.073Z,88.18
2024-05-09T03:43:54.530Z,88.28
2024-05-09T03:46:21.657Z,87.06
2024-05-09T03:48:51.445Z,86.10
2024-05-09T03:51:18.646Z,85.01
2024-05-09T03:53:48.377Z,84.94
2024-05-09T03:56:15.589Z,84.88
2024-05-09T03:58:45.375Z,85.34
2024-05-09T04:01:15.229Z,86.09
2024-05-09T04:03:45.215Z,86.82
2024-05-09T04:06:12.561Z,85.63
2024-05-09T04:08:42.357Z,85.16
2024-05-09T04:11:09.572Z,85.08
2024-05-09T04:13:39.415Z,84.96
2024-05-09T04:16:09.668Z,85.09
2024-05-09T04:18:42.051Z,85.00
2024-05-09T04:21:09.315Z,85.24
2024-05-09T04:23:39.282Z,85.58
2024-05-09T04:26:08.667Z,85.97
2024-05-09T04:28:38.390Z,86.13
2024-05-09T04:31:05.520Z,86.47
2024-05-09T04:33:35.359Z,86.69
2024-05-09T04:36:06.812Z,86.08
2024-05-09T04:38:36.694Z,86.71
2024-05-09T04:41:04.118Z,87.66
2024-05-09T04:43:35.284Z,89.05
2024-05-09T04:46:02.371Z,87.74
2024-05-09T04:48:32.219Z,85.95
2024-05-09T04:50:59.547Z,85.42
2024-05-09T04:53:31.999Z,85.51
2024-05-09T04:55:59.175Z,85.41
2024-05-09T04:58:28.904Z,85.40
2024-05-09T05:00:56.023Z,85.78
2024-05-09T05:03:26.087Z,86.03
2024-05-09T05:05:53.376Z,86.83
2024-05-09T05:08:23.227Z,87.41
2024-05-09T05:10:53.177Z,86.62
2024-05-09T05:13:24.024Z,85.77
2024-05-09T05:15:55.411Z,84.87
2024-05-09T05:18:25.850Z,84.70
2024-05-09T05:20:53.678Z,84.90
2024-05-09T05:23:24.873Z,85.28
2024-05-09T05:25:56.893Z,85.90
2024-05-09T05:28:26.706Z,85.59
2024-05-09T05:30:53.862Z,86.34
2024-05-09T05:33:24.637Z,85.97
2024-05-09T05:35:51.835Z,85.07
2024-05-09T05:38:24.776Z,84.56
2024-05-09T05:40:57.065Z,84.75
2024-05-09T05:43:26.852Z,85.71
2024-05-09T05:45:53.950Z,86.68
2024-05-09T05:48:23.948Z,86.59
2024-05-09T05:50:51.148Z,86.68
2024-05-09T05:53:20.937Z,86.45
2024-05-09T05:55:48.089Z,86.14
2024-05-09T05:58:21.624Z,85.87
2024-05-09T06:00:48.863Z,86.11
2024-05-09T06:03:18.669Z,86.32
2024-05-09T06:05:46.612Z,85.63
2024-05-09T06:08:16.856Z,86.00
2024-05-09T06:10:44.142Z,85.31
2024-05-09T06:13:15.772Z,85.60
2024-05-09T06:15:45.613Z,86.53
2024-05-09T06:18:17.142Z,87.78
2024-05-09T06:20:44.648Z,87.74
2024-05-09T06:23:14.960Z,88.44
2024-05-09T06:25:42.596Z,88.90
2024-05-09T06:28:12.601Z,88.85
2024-05-09T06:30:42.453Z,87.95
2024-05-09T06:33:16.718Z,86.95
2024-05-09T06:35:44.535Z,88.15
2024-05-09T06:38:14.787Z,86.67
2024-05-09T06:40:43.806Z,86.17
2024-05-09T06:43:16.426Z,86.69
2024-05-09T06:45:46.938Z,87.17
2024-05-09T06:48:21.428Z,87.90
2024-05-09T06:50:49.842Z,87.41
2024-05-09T06:53:20.300Z,87.11
2024-05-09T06:55:47.633Z,87.25
2024-05-09T06:58:18.490Z,87.26
2024-05-09T07:00:45.803Z,86.95
2024-05-09T07:03:18.351Z,86.29
2024-05-09T07:05:49.904Z,85.72
2024-05-09T07:08:20.039Z,85.39
2024-05-09T07:10:47.455Z,83.60
2024-05-09T07:13:17.928Z,82.78
2024-05-09T07:15:45.255Z,81.80
2024-05-09T07:18:20.042Z,81.34
2024-05-09T07:20:51.043Z,81.23
2024-05-09T07:23:21.361Z,80.88
2024-05-09T07:25:48.673Z,80.56
2024-05-09T07:28:19.769Z,80.23
2024-05-09T07:30:47.419Z,81.61
2024-05-09T07:33:22.611Z,81.41
2024-05-09T07:35:53.657Z,81.39
2024-05-09T07:38:24.141Z,80.68
2024-05-09T07:40:51.490Z,81.58
2024-05-09T07:43:21.238Z,82.39
2024-05-09T07:45:53.381Z,81.81
2024-05-09T07:53:40.482Z,79.42
2024-05-09T07:56:12.427Z,78.90
2024-05-09T07:58:42.518Z,80.04
2024-05-09T08:01:09.826Z,79.83
2024-05-09T08:03:41.050Z,78.87
2024-05-09T08:06:10.888Z,78.27
2024-05-09T08:08:40.652Z,78.50
2024-05-09T08:11:07.777Z,77.58
2024-05-09T08:13:37.566Z,77.64
2024-05-09T08:16:05.445Z,76.49
2024-05-09T08:18:35.727Z,77.28
2024-05-09T08:21:03.024Z,77.23
2024-05-09T08:23:36.354Z,76.79
2024-05-09T08:26:03.595Z,77.20
2024-05-09T08:28:33.351Z,79.36
2024-05-09T08:31:03.169Z,78.62
2024-05-09T08:33:35.382Z,77.06
2024-05-09T08:36:02.870Z,76.14
2024-05-09T08:38:35.286Z,75.78
2024-05-09T08:41:04.392Z,77.23
2024-05-09T08:43:34.105Z,77.07
2024-05-09T08:46:04.315Z,77.59
2024-05-09T08:48:37.172Z,77.36
2024-05-09T08:51:05.945Z,77.13
2024-05-09T08:53:38.306Z,78.11
2024-05-09T08:56:09.554Z,76.95
2024-05-09T08:58:39.729Z,76.92
2024-05-09T09:01:07.708Z,76.83
2024-05-09T09:03:39.698Z,75.85
2024-05-09T09:06:11.686Z,76.19
2024-05-09T09:08:44.122Z,77.26
2024-05-09T09:11:11.317Z,76.10
2024-05-09T09:13:41.330Z,77.02
2024-05-09T09:16:08.640Z,77.30
2024-05-09T09:18:38.891Z,77.25
2024-05-09T09:21:10.261Z,75.67
2024-05-09T09:23:41.589Z,75.78
2024-05-09T09:26:15.951Z,74.22
2024-05-09T09:28:45.733Z,74.51
2024-05-09T09:31:13.099Z,74.18
2024-05-09T09:33:44.961Z,73.27
2024-05-09T09:36:14.272Z,75.47
2024-05-09T09:38:44.221Z,74.33
2024-05-09T09:41:17.813Z,73.45
2024-05-09T09:43:48.038Z,73.46
2024-05-09T09:46:16.229Z,75.05
2024-05-09T09:48:47.349Z,73.60
2024-05-09T09:51:15.905Z,72.41
2024-05-09T09:53:47.189Z,71.61
2024-05-09T09:56:18.644Z,72.57
2024-05-09T09:58:49.401Z,73.54
2024-05-09T10:01:16.709Z,71.82
2024-05-09T10:03:46.917Z,72.20
2024-05-09T10:06:15.515Z,70.57
2024-05-09T10:08:45.831Z,69.79
2024-05-09T10:11:13.197Z,70.87
2024-05-09T10:13:47.052Z,70.21
2024-05-09T10:16:21.249Z,70.62
2024-05-09T10:18:51.337Z,72.43
2024-05-09T10:21:19.716Z,72.37
2024-05-09T10:23:59.999Z,71.42
2024-05-09T10:26:34.014Z,71.35
2024-05-09T10:29:13.701Z,70.70
2024-05-09T10:31:42.034Z,70.30
2024-05-09T10:34:20.054Z,70.59
2024-05-09T10:36:52.556Z,71.35
2024-05-09T10:39:23.495Z,71.63
2024-05-09T10:41:50.635Z,70.67
2024-05-09T10:44:24.288Z,68.53
2024-05-09T10:46:54.627Z,70.14
2024-05-09T10:49:24.814Z,69.40
2024-05-09T10:51:52.910Z,69.80
2024-05-09T10:54:22.754Z,69.28
2024-05-09T10:56:56.422Z,69.16
2024-05-09T10:59:35.913Z,68.81
2024-05-09T11:02:05.031Z,67.28
2024-05-09T11:04:36.497Z,69.17
2024-05-09T11:07:07.674Z,67.73
2024-05-09T11:09:38.377Z,66.47
2024-05-09T11:12:06.119Z,66.33
2024-05-09T11:14:38.841Z,66.16
2024-05-09T11:17:07.261Z,65.67
2024-05-09T11:19:40.224Z,65.23
2024-05-09T11:22:07.623Z,68.10
2024-05-09T11:24:37.915Z,66.59
2024-05-09T11:27:06.170Z,65.81
2024-05-09T11:29:47.365Z,65.36
2024-05-09T11:32:16.626Z,63.92
2024-05-09T11:34:46.406Z,63.73
2024-05-09T11:37:14.079Z,63.89
2024-05-09T11:39:44.017Z,65.33
2024-05-09T11:42:14.292Z,66.06
2024-05-09T11:44:44.047Z,66.39
2024-05-09T11:47:13.849Z,66.04
2024-05-09T11:49:41.023Z,65.45
2024-05-09T11:52:10.911Z,63.89
2024-05-09T11:54:38.224Z,63.70
2024-05-09T11:57:09.569Z,64.81
2024-05-09T11:59:36.699Z,63.61
2024-05-09T12:02:09.948Z,64.50
2024-05-09T12:04:37.277Z,64.59
2024-05-09T12:07:09.777Z,63.56
2024-05-09T12:09:38.598Z,63.28
2024-05-09T12:12:08.974Z,63.92
2024-05-09T12:14:36.347Z,63.46
2024-05-09T12:17:08.792Z,62.73
2024-05-09T12:19:36.937Z,62.80
2024-05-09T12:22:07.398Z,62.81
2024-05-09T12:24:34.651Z,62.79
2024-05-09T12:27:04.480Z,62.12
2024-05-09T12:29:31.594Z,61.91
2024-05-09T12:32:01.399Z,62.13
2024-05-09T12:34:31.194Z,61.49
2024-05-09T12:37:01.225Z,62.23
2024-05-09T12:39:28.396Z,61.40
2024-05-09T12:41:58.219Z,61.78
2024-05-09T12:44:25.305Z,61.82
2024-05-09T12:46:55.049Z,62.33
2024-05-09T12:49:24.407Z,60.84
2024-05-09T12:51:56.885Z,61.17
2024-05-09T12:54:24.144Z,62.48
2024-05-09T12:56:54.170Z,61.28
2024-05-09T12:59:21.256Z,60.85
2024-05-09T13:01:51.078Z,61.06
2024-05-09T13:04:18.551Z,61.84
2024-05-09T13:06:48.634Z,61.73
2024-05-09T13:09:18.558Z,61.65
2024-05-09T13:11:48.365Z,60.96
2024-05-09T13:14:15.516Z,60.49
2024-05-09T13:16:45.427Z,58.23
2024-05-09T13:19:12.657Z,59.13
2024-05-09T13:21:42.432Z,59.19
2024-05-09T13:24:09.594Z,59.34
2024-05-09T13:26:41.998Z,58.62
2024-05-09T13:29:09.215Z,58.33
2024-05-09T13:31:39.216Z,58.56
2024-05-09T13:34:06.482Z,58.61
2024-05-09T13:36:36.458Z,57.68
2024-05-09T13:39:03.987Z,58.91
2024-05-09T13:41:33.660Z,57.43
2024-05-09T13:44:03.820Z,57.36
2024-05-09T13:46:33.626Z,57.22
2024-05-09T13:49:00.876Z,57.86
2024-05-09T13:51:30.722Z,56.58
2024-05-09T13:54:00.808Z,57.30
2024-05-09T13:56:27.897Z,57.90
2024-05-09T13:58:57.657Z,56.01
2024-05-09T14:01:27.903Z,55.98
2024-05-09T14:03:57.766Z,56.48
2024-05-09T14:06:25.097Z,56.23
2024-05-09T14:08:54.907Z,56.60
2024-05-09T14:11:22.151Z,56.19
2024-05-09T14:13:51.854Z,55.62
2024-05-09T14:16:19.037Z,55.05
2024-05-09T14:18:51.795Z,55.47
2024-05-09T14:21:18.952Z,54.68
2024-05-09T14:23:48.663Z,54.53
2024-05-09T14:26:16.002Z,54.46
2024-05-09T14:28:45.810Z,53.84
2024-05-09T14:31:13.078Z,53.17
2024-05-09T14:33:43.011Z,53.90
2024-05-09T14:36:13.050Z,53.52
2024-05-09T14:38:42.972Z,54.21
2024-05-09T14:41:13.127Z,55.09
2024-05-09T14:43:43.059Z,53.33
2024-05-09T14:46:10.407Z,53.58
2024-05-09T14:48:41.000Z,53.11
2024-05-09T14:51:08.405Z,53.28
2024-05-09T14:53:40.767Z,52.69
2024-05-09T14:56:08.201Z,53.38
2024-05-09T14:58:38.036Z,53.03
2024-05-09T15:01:05.501Z,53.01
2024-05-09T15:03:35.467Z,52.43
2024-05-09T15:06:02.786Z,52.06
2024-05-09T15:08:32.662Z,51.63
2024-05-09T15:11:02.515Z,51.48
2024-05-09T15:13:32.342Z,52.91
2024-05-09T15:15:59.632Z,51.45
2024-05-09T15:18:29.650Z,52.10
2024-05-09T15:20:56.961Z,51.62
2024-05-09T15:23:26.732Z,51.94
2024-05-09T15:25:53.866Z,51.27
2024-05-09T15:28:26.444Z,51.27
2024-05-09T15:30:53.806Z,51.77
2024-05-09T15:33:23.626Z,51.37
2024-05-09T15:35:51.571Z,51.50
2024-05-09T15:38:21.939Z,50.27
2024-05-09T15:40:49.084Z,50.52
2024-05-09T15:43:18.928Z,49.58
2024-05-09T15:45:51.514Z,48.73
2024-05-09T15:48:19.370Z,50.65
2024-05-09T15:50:49.254Z,51.13
2024-05-09T15:53:16.404Z,49.90
2024-05-09T15:55:46.136Z,48.51
2024-05-09T15:58:13.937Z,48.08
2024-05-09T16:00:46.281Z,47.76
2024-05-09T16:03:17.954Z,47.13
2024-05-09T16:05:48.305Z,48.29
2024-05-09T16:08:16.270Z,47.66
2024-05-09T16:10:47.030Z,47.14
2024-05-09T16:13:15.603Z,47.51
2024-05-09T16:15:46.406Z,47.11
2024-05-09T16:18:13.753Z,47.21
2024-05-09T16:20:49.231Z,46.72
2024-05-09T16:23:17.642Z,48.46
2024-05-09T16:25:48.377Z,49.33
2024-05-09T16:28:16.730Z,49.05
2024-05-09T16:30:46.552Z,48.11
2024-05-09T16:33:13.930Z,49.08
2024-05-09T16:35:46.420Z,48.62
2024-05-09T16:38:13.735Z,48.82
2024-05-09T16:40:43.527Z,48.02
2024-05-09T16:43:11.919Z,47.14
2024-05-09T16:45:43.956Z,48.38
2024-05-09T16:48:12.363Z,48.28
2024-05-09T16:50:42.234Z,47.69
2024-05-09T16:53:14.820Z,47.28
2024-05-09T16:55:41.918Z,46.59
2024-05-09T16:58:12.567Z,47.08
2024-05-09T17:00:43.250Z,45.79
2024-05-09T17:03:16.156Z,46.44
2024-05-09T17:05:45.717Z,47.45
2024-05-09T17:08:19.954Z,47.21
2024-05-09T17:10:49.014Z,47.04
2024-05-09T17:13:19.989Z,46.60
2024-05-09T17:15:48.075Z,46.96
2024-05-09T17:18:18.161Z,46.42
2024-05-09T17:20:45.344Z,46.01
2024-05-09T17:23:15.397Z,45.41
2024-05-09T17:25:45.230Z,44.71
2024-05-09T17:28:15.245Z,44.96
2024-05-09T17:30:43.099Z,45.47
2024-05-09T17:33:13.694Z,45.57
2024-05-09T17:35:41.203Z,45.99
2024-05-09T17:38:11.318Z,45.93
2024-05-09T17:40:39.295Z,46.10
2024-05-09T17:43:12.898Z,46.10
2024-05-09T17:45:41.155Z,45.72
2024-05-09T17:48:12.626Z,45.70
2024-05-09T17:50:40.994Z,45.85
2024-05-09T17:53:11.778Z,45.03
2024-05-09T17:55:39.804Z,45.24
2024-05-09T17:58:12.856Z,46.20
2024-05-09T18:00:42.312Z,46.66
2024-05-09T18:03:14.404Z,45.61
2024-05-09T18:05:43.155Z,47.12
2024-05-09T18:08:14.176Z,47.26
2024-05-09T18:10:41.960Z,46.95
2024-05-09T18:13:15.367Z,46.09
2024-05-09T18:15:42.703Z,47.53
2024-05-09T18:18:12.784Z,46.57
2024-05-09T18:20:44.406Z,46.63
2024-05-09T18:23:18.099Z,47.08
2024-05-09T18:25:46.409Z,46.67
2024-05-09T18:28:19.290Z,47.40
2024-05-09T18:30:46.674Z,48.66
2024-05-09T18:33:16.920Z,48.14
2024-05-09T18:35:44.944Z,49.00
2024-05-09T18:38:14.851Z,50.08
2024-05-09T18:40:44.763Z,50.94
2024-05-09T18:43:26.188Z,51.58
2024-05-09T18:45:58.676Z,52.26
2024-05-09T18:48:28.594Z,52.12
2024-05-09T18:50:55.878Z,52.87
2024-05-09T18:53:25.582Z,52.85
2024-05-09T18:55:53.103Z,53.29
2024-05-09T18:58:25.474Z,54.30
2024-05-09T19:00:54.986Z,54.74
2024-05-09T19:03:25.974Z,55.09
2024-05-09T19:05:53.471Z,55.03
2024-05-09T19:08:23.206Z,55.31
2024-05-09T19:10:52.581Z,55.27
2024-05-09T19:13:25.387Z,56.23
2024-05-09T19:15:52.752Z,56.13
2024-05-09T19:18:22.544Z,57.26
2024-05-09T19:20:49.735Z,57.41
2024-05-09T19:23:19.511Z,56.88
2024-05-09T19:25:46.610Z,56.87
2024-05-09T19:28:16.683Z,57.50
2024-05-09T19:30:46.648Z,57.46
2024-05-09T19:33:16.493Z,57.77
2024-05-09T19:35:43.895Z,58.43
2024-05-09T19:38:14.115Z,58.66
2024-05-09T19:40:41.873Z,58.63
2024-05-09T19:43:12.076Z,59.29
2024-05-09T19:45:39.514Z,59.97
2024-05-09T19:48:12.396Z,60.32
2024-05-09T19:50:43.465Z,61.13
2024-05-09T19:53:15.065Z,62.56
2024-05-09T19:55:42.756Z,63.41
2024-05-09T19:58:13.383Z,63.98
2024-05-09T20:00:42.976Z,63.05
2024-05-09T20:03:17.237Z,61.91
2024-05-09T20:05:46.765Z,63.09
2024-05-09T20:08:17.094Z,62.25
2024-05-09T20:10:44.385Z,62.39
2024-05-09T20:13:14.435Z,62.70
2024-05-09T20:15:41.738Z,62.41
2024-05-09T20:18:11.657Z,62.84
2024-05-09T20:20:43.864Z,62.25
2024-05-09T20:23:15.969Z,62.76
2024-05-09T20:25:43.138Z,62.54
2024-05-09T20:28:12.979Z,62.50
2024-05-09T20:30:40.296Z,63.04
2024-05-09T20:33:10.552Z,62.63
2024-05-09T20:35:37.987Z,63.10
2024-05-09T20:38:10.735Z,62.92
2024-05-09T20:40:39.415Z,62.99
2024-05-09T20:43:11.094Z,62.63
2024-05-09T20:45:39.032Z,62.99
2024-05-09T20:48:10.850Z,62.70
2024-05-09T20:50:41.214Z,63.01
2024-05-09T20:53:15.668Z,63.06
2024-05-09T20:55:44.089Z,63.55
2024-05-09T20:58:14.642Z,63.48
2024-05-09T21:00:44.672Z,63.52
2024-05-09T21:03:17.420Z,63.94
2024-05-09T21:05:45.367Z,64.15
2024-05-09T21:08:17.918Z,64.80
2024-05-09T21:10:45.098Z,64.46
2024-05-09T21:13:15.148Z,64.15
2024-05-09T21:15:42.559Z,64.14
2024-05-09T21:18:12.462Z,64.56
2024-05-09T21:20:39.577Z,64.00
2024-05-09T21:23:09.353Z,64.76
2024-05-09T21:25:39.070Z,64.37
2024-05-09T21:28:09.221Z,64.89
2024-05-09T21:30:41.780Z,65.29
2024-05-09T21:33:14.536Z,65.77
2024-05-09T21:35:42.996Z,65.68
2024-05-09T21:38:13.804Z,65.70
2024-05-09T21:40:44.478Z,65.46
2024-05-09T21:43:15.046Z,65.55
2024-05-09T21:45:42.536Z,65.87
2024-05-09T21:48:15.398Z,65.64
2024-05-09T21:50:42.931Z,65.83
2024-05-09T21:53:13.736Z,66.04
2024-05-09T21:55:44.387Z,66.41
2024-05-09T21:58:15.074Z,66.64
2024-05-09T22:00:45.289Z,66.65
2024-05-09T22:03:15.551Z,67.06
2024-05-09T22:05:44.752Z,67.98
2024-05-09T22:08:15.266Z,68.82
2024-05-09T22:10:45.164Z,69.08
2024-05-09T22:13:16.837Z,69.60
2024-05-09T22:15:47.023Z,69.49
2024-05-09T22:18:14.409Z,69.66
2024-05-09T22:20:46.332Z,69.71
2024-05-09T22:23:15.107Z,69.91
2024-05-09T22:25:48.219Z,69.78
2024-05-09T22:28:15.959Z,69.85
2024-05-09T22:30:47.329Z,70.18
2024-05-09T22:33:15.288Z,70.28
2024-05-09T22:35:45.423Z,70.83
2024-05-09T22:38:12.687Z,70.54
2024-05-09T22:40:47.797Z,70.61
2024-05-09T22:43:21.596Z,71.62
2024-05-09T22:45:54.385Z,71.47
2024-05-09T22:48:22.109Z,72.21
2024-05-09T22:50:52.020Z,73.08
2024-05-09T22:53:19.342Z,73.93
2024-05-09T22:55:49.035Z,74.04
2024-05-09T22:58:16.272Z,73.70
2024-05-09T23:00:48.815Z,74.37
2024-05-09T23:03:16.784Z,74.95
2024-05-09T23:05:47.445Z,75.49
2024-05-09T23:08:14.672Z,75.31
2024-05-09T23:10:44.595Z,75.22
2024-05-09T23:13:11.793Z,74.80
2024-05-09T23:15:41.583Z,75.13
2024-05-09T23:18:11.469Z,75.42
2024-05-09T23:20:41.239Z,75.49
2024-05-09T23:23:10.252Z,75.46
2024-05-09T23:25:41.791Z,75.45
2024-05-09T23:28:09.493Z,75.59
2024-05-09T23:30:40.987Z,75.57
2024-05-09T23:33:13.711Z,75.30
2024-05-09T23:35:44.967Z,75.18
2024-05-09T23:38:12.437Z,75.37
2024-05-09T23:40:43.115Z,75.50
2024-05-09T23:43:12.229Z,76.00
2024-05-09T23:45:42.938Z,75.85
2024-05-09T23:48:12.998Z,75.71
2024-05-09T23:50:42.847Z,76.52
2024-05-09T23:53:10.734Z,78.07
2024-05-09T23:55:41.113Z,79.11
2024-05-09T23:58:08.690Z,79.26
